Wetterstation Vordersexau
Wetterdaten: Woche 20.01.14 - 26.01.14 (KW4)
Datum Zeit Temp. A. Feuchte A. Luftdruck Regen Wind Richtung Taupunkt Windchill Windben
20.01.2014 00:00 2,4 C 81 % 970,7 hPa 0,0 l/m 0,0 km/h NW -0,5 C 2,4 C 0,0 km/h
20.01.2014 01:00 2,3 C 81 % 970,6 hPa 0,0 l/m 0,0 km/h SO -0,6 C 2,3 C 0,0 km/h
20.01.2014 02:00 2,4 C 81 % 970,9 hPa 0,0 l/m 0,0 km/h S -0,5 C 2,4 C 0,0 km/h
20.01.2014 03:00 2,4 C 82 % 971,0 hPa 0,0 l/m 0,0 km/h S -0,4 C 2,4 C 0,0 km/h
20.01.2014 04:00 2,4 C 81 % 971,1 hPa 0,0 l/m 0,0 km/h S -0,5 C 2,4 C 0,0 km/h
20.01.2014 05:00 2,5 C 81 % 971,5 hPa 0,8 l/m 0,0 km/h S -0,4 C 2,5 C 0,0 km/h
20.01.2014 06:00 2,5 C 81 % 971,6 hPa 0,0 l/m 0,0 km/h S -0,4 C 2,5 C 0,0 km/h
20.01.2014 07:00 2,6 C 80 % 972,2 hPa 0,0 l/m 0,0 km/h S -0,5 C 2,6 C 0,0 km/h
20.01.2014 08:00 2,7 C 80 % 972,7 hPa 0,0 l/m 0,0 km/h S -0,4 C 2,7 C 0,0 km/h
20.01.2014 09:00 3,1 C 80 % 973,2 hPa 0,0 l/m 0,0 km/h W-SW -0,0 C 3,1 C 0,0 km/h
20.01.2014 10:00 3,6 C 78 % 974,0 hPa 0,0 l/m 0,0 km/h W 0,1 C 3,6 C 0,0 km/h
20.01.2014 11:00 3,9 C 78 % 974,4 hPa 0,0 l/m 0,0 km/h NW 0,4 C 3,9 C 0,0 km/h
20.01.2014 12:00 4,8 C 82 % 974,8 hPa 0,0 l/m 0,0 km/h NW 2,0 C 4,8 C 0,0 km/h
20.01.2014 13:00 4,8 C 86 % 974,7 hPa 0,0 l/m 0,0 km/h NW 2,7 C 4,8 C 0,0 km/h
20.01.2014 14:00 4,6 C 87 % 974,9 hPa 0,0 l/m 0,0 km/h NW 2,6 C 4,6 C 0,0 km/h
20.01.2014 15:00 4,9 C 87 % 975,3 hPa 0,0 l/m 0,0 km/h NW 2,9 C 4,9 C 0,0 km/h
20.01.2014 16:00 4,4 C 87 % 976,2 hPa 0,0 l/m 0,0 km/h NW 2,4 C 4,4 C 0,0 km/h
20.01.2014 17:00 4,1 C 87 % 976,6 hPa 0,0 l/m 0,0 km/h N-NW 2,1 C 4,1 C 0,0 km/h
20.01.2014 18:00 4,1 C 86 % 977,2 hPa 0,0 l/m 0,0 km/h N-NW 2,0 C 4,1 C 0,0 km/h
20.01.2014 19:00 3,9 C 86 % 977,5 hPa 0,0 l/m 0,0 km/h N-NW 1,8 C 3,9 C 0,0 km/h
20.01.2014 20:00 4,1 C 85 % 977,9 hPa 0,0 l/m 0,0 km/h N 1,8 C 4,1 C 0,0 km/h
20.01.2014 21:00 4,2 C 85 % 978,5 hPa 0,0 l/m 0,0 km/h N 1,9 C 4,2 C 0,0 km/h
20.01.2014 22:00 4,3 C 85 % 979,1 hPa 0,0 l/m 0,0 km/h N-NW 2,0 C 4,3 C 0,0 km/h
20.01.2014 23:00 4,4 C 84 % 979,6 hPa 0,0 l/m 0,0 km/h W-SW 1,9 C 4,4 C 0,0 km/h
21.01.2014 00:00 4,8 C 83 % 979,9 hPa 0,0 l/m 1,8 km/h W-SW 2,2 C 4,8 C 1,8 km/h
21.01.2014 01:00 4,7 C 84 % 979,7 hPa 0,0 l/m 4,0 km/h W-SW 2,2 C 4,7 C 4,0 km/h
21.01.2014 02:00 4,5 C 85 % 980,2 hPa 0,0 l/m 0,7 km/h W-SW 2,2 C 4,5 C 0,7 km/h
21.01.2014 03:00 4,4 C 85 % 980,6 hPa 0,0 l/m 0,0 km/h W 2,1 C 4,4 C 0,0 km/h
21.01.2014 04:00 4,3 C 85 % 981,0 hPa 0,0 l/m 1,4 km/h W-SW 2,0 C 4,3 C 1,4 km/h
21.01.2014 05:00 4,1 C 85 % 981,4 hPa 0,0 l/m 1,9 km/h W 1,8 C 4,1 C 1,1 km/h
21.01.2014 06:00 3,9 C 84 % 981,6 hPa 0,0 l/m 1,3 km/h SW 1,4 C 3,9 C 0,7 km/h
21.01.2014 07:00 3,9 C 83 % 982,0 hPa 0,8 l/m 1,3 km/h W-SW 1,3 C 3,9 C 0,7 km/h
21.01.2014 08:00 3,9 C 82 % 982,6 hPa 0,0 l/m 0,0 km/h SW 1,1 C 3,9 C 0,0 km/h
21.01.2014 09:00 3,9 C 81 % 983,3 hPa 0,0 l/m 1,3 km/h W-NW 0,9 C 3,9 C 0,7 km/h
21.01.2014 10:00 4,2 C 80 % 983,9 hPa 0,8 l/m 0,0 km/h W-SW 1,1 C 4,2 C 0,0 km/h
21.01.2014 11:00 4,4 C 80 % 984,0 hPa 0,0 l/m 0,0 km/h W-SW 1,3 C 4,4 C 0,0 km/h
21.01.2014 12:00 4,9 C 80 % 983,9 hPa 0,0 l/m 0,0 km/h SW 1,7 C 4,9 C 0,0 km/h
21.01.2014 13:00 5,3 C 83 % 983,5 hPa 0,0 l/m 0,0 km/h SW 2,7 C 5,3 C 0,0 km/h
21.01.2014 14:00 6,1 C 85 % 983,2 hPa 0,0 l/m 0,0 km/h S-SO 3,8 C 6,1 C 0,0 km/h
21.01.2014 15:00 6,1 C 88 % 983,5 hPa 0,0 l/m 0,0 km/h SO 4,3 C 6,1 C 0,0 km/h
21.01.2014 16:00 5,5 C 88 % 983,9 hPa 0,0 l/m 0,0 km/h SO 3,7 C 5,5 C 0,0 km/h
21.01.2014 17:00 4,7 C 88 % 984,1 hPa 0,0 l/m 0,0 km/h O-SO 2,9 C 4,7 C 0,0 km/h
21.01.2014 18:00 4,3 C 88 % 984,2 hPa 0,0 l/m 0,0 km/h O-SO 2,5 C 4,3 C 0,0 km/h
21.01.2014 19:00 4,1 C 87 % 984,2 hPa 0,0 l/m 0,0 km/h O 2,1 C 4,1 C 0,0 km/h
21.01.2014 20:00 3,9 C 87 % 984,1 hPa 0,0 l/m 0,0 km/h O 1,9 C 3,9 C 0,0 km/h
21.01.2014 21:00 3,4 C 86 % 984,0 hPa 0,0 l/m 0,0 km/h O 1,3 C 3,4 C 0,0 km/h
21.01.2014 22:00 3,2 C 86 % 983,9 hPa 0,0 l/m 0,0 km/h O 1,1 C 3,2 C 0,0 km/h
21.01.2014 23:00 3,3 C 85 % 983,9 hPa 0,0 l/m 0,0 km/h O 1,0 C 3,3 C 0,0 km/h
22.01.2014 00:00 3,3 C 84 % 983,7 hPa 0,0 l/m 0,0 km/h O 0,9 C 3,3 C 0,0 km/h
22.01.2014 01:00 3,3 C 84 % 983,2 hPa 0,0 l/m 0,0 km/h O 0,9 C 3,3 C 0,0 km/h
22.01.2014 02:00 3,3 C 84 % 983,3 hPa 0,0 l/m 0,0 km/h O-SO 0,9 C 3,3 C 0,0 km/h
22.01.2014 03:00 3,4 C 83 % 983,0 hPa 0,0 l/m 0,0 km/h O-SO 0,8 C 3,4 C 0,0 km/h
22.01.2014 04:00 3,3 C 83 % 983,0 hPa 0,0 l/m 0,0 km/h O-SO 0,7 C 3,3 C 0,0 km/h
22.01.2014 05:00 3,1 C 83 % 983,0 hPa 0,0 l/m 0,0 km/h O-SO 0,5 C 3,1 C 0,0 km/h
22.01.2014 06:00 3,2 C 83 % 982,7 hPa 0,0 l/m 0,0 km/h O-SO 0,6 C 3,2 C 0,0 km/h
22.01.2014 07:00 3,0 C 83 % 982,8 hPa 0,0 l/m 0,0 km/h NO 0,4 C 3,0 C 0,0 km/h
22.01.2014 08:00 2,9 C 82 % 983,1 hPa 0,0 l/m 0,0 km/h NO 0,1 C 2,9 C 0,0 km/h
22.01.2014 09:00 3,5 C 82 % 983,2 hPa 0,0 l/m 0,0 km/h N-NO 0,7 C 3,5 C 0,0 km/h
22.01.2014 10:00 4,8 C 82 % 983,2 hPa 0,0 l/m 0,0 km/h W-NW 2,0 C 4,8 C 0,0 km/h
22.01.2014 11:00 5,8 C 86 % 983,5 hPa 0,0 l/m 0,0 km/h W-NW 3,6 C 5,8 C 0,0 km/h
22.01.2014 12:00 6,5 C 86 % 982,8 hPa 0,0 l/m 0,0 km/h N 4,3 C 6,5 C 0,0 km/h
22.01.2014 13:00 7,1 C 79 % 982,5 hPa 0,0 l/m 0,0 km/h N 3,7 C 7,1 C 0,0 km/h
22.01.2014 14:00 7,1 C 77 % 982,0 hPa 0,0 l/m 0,0 km/h N 3,3 C 7,1 C 0,0 km/h
22.01.2014 15:00 6,5 C 76 % 982,2 hPa 0,0 l/m 0,0 km/h NW 2,6 C 6,5 C 0,0 km/h
22.01.2014 16:00 5,8 C 78 % 982,6 hPa 0,0 l/m 0,0 km/h N 2,3 C 5,8 C 0,0 km/h
22.01.2014 17:00 4,9 C 80 % 1010,1 hPa 0,0 l/m 0,0 km/h N 1,7 C 4,9 C 0,0 km/h
22.01.2014 18:00 4,4 C 83 % 1010,4 hPa 0,0 l/m 0,0 km/h N 1,8 C 4,4 C 0,0 km/h
22.01.2014 19:00 3,9 C 85 % 1010,7 hPa 0,0 l/m 0,0 km/h O 1,6 C 3,9 C 0,0 km/h
22.01.2014 20:00 3,9 C 86 % 1011,1 hPa 0,0 l/m 0,0 km/h O 1,8 C 3,9 C 0,0 km/h
22.01.2014 21:00 3,7 C 87 % 984,2 hPa 0,0 l/m 0,0 km/h O-NO 1,7 C 3,7 C 0,0 km/h
22.01.2014 22:00 3,4 C 87 % 984,8 hPa 0,0 l/m 0,0 km/h SO 1,4 C 3,4 C 0,0 km/h
22.01.2014 23:00 3,4 C 87 % 984,6 hPa 0,0 l/m 0,0 km/h NO 1,4 C 3,4 C 0,0 km/h
23.01.2014 00:00 3,2 C 88 % 984,9 hPa 0,0 l/m 0,0 km/h NO 1,4 C 3,2 C 0,0 km/h
23.01.2014 01:00 2,2 C 88 % 984,8 hPa 0,0 l/m 0,0 km/h S-SO 0,4 C 2,2 C 0,0 km/h
23.01.2014 02:00 1,9 C 88 % 985,3 hPa 0,0 l/m 0,0 km/h O-SO 0,1 C 1,9 C 0,0 km/h
23.01.2014 03:00 0,9 C 88 % 985,6 hPa 0,0 l/m 0,0 km/h O-SO -0,9 C 0,9 C 0,0 km/h
23.01.2014 04:00 0,8 C 88 % 986,1 hPa 0,0 l/m 0,0 km/h N-NW -1,0 C 0,8 C 0,0 km/h
23.01.2014 05:00 0,9 C 88 % 986,2 hPa 0,0 l/m 0,0 km/h N-NW -0,9 C 0,9 C 0,0 km/h
23.01.2014 06:00 0,8 C 88 % 986,1 hPa 0,0 l/m 0,0 km/h NW -1,0 C 0,8 C 0,0 km/h
23.01.2014 07:00 1,2 C 88 % 986,3 hPa 0,0 l/m 0,0 km/h NW -0,6 C 1,2 C 0,0 km/h
23.01.2014 08:00 1,3 C 87 % 986,7 hPa 0,0 l/m 0,0 km/h NO -0,6 C 1,3 C 0,0 km/h
23.01.2014 09:00 1,9 C 87 % 986,7 hPa 0,0 l/m 0,0 km/h NO -0,0 C 1,9 C 0,0 km/h
23.01.2014 10:00 3,1 C 87 % 987,4 hPa 0,0 l/m 0,0 km/h NO 1,2 C 3,1 C 0,0 km/h
23.01.2014 11:00 3,6 C 87 % 987,6 hPa 0,8 l/m 0,0 km/h S-SW 1,6 C 3,6 C 0,0 km/h
23.01.2014 12:00 4,3 C 88 % 987,2 hPa 0,0 l/m 0,0 km/h W-SW 2,5 C 4,3 C 0,0 km/h
23.01.2014 13:00 4,2 C 88 % 986,7 hPa 0,0 l/m 22,7 km/h SW 2,4 C -5,2 C 12,6 km/h
23.01.2014 14:00 4,8 C 87 % 986,3 hPa 0,0 l/m 32,4 km/h S-SW 2,8 C -7,3 C 18,0 km/h
23.01.2014 15:00 5,3 C 87 % 986,5 hPa 0,0 l/m 38,9 km/h S-SW 3,3 C -7,9 C 21,6 km/h
23.01.2014 16:00 5,3 C 87 % 986,4 hPa 0,0 l/m 18,8 km/h W-SW 3,3 C -2,3 C 10,4 km/h
23.01.2014 17:00 5,3 C 87 % 986,3 hPa 0,0 l/m 21,4 km/h SW 3,3 C -3,3 C 11,9 km/h
23.01.2014 18:00 5,4 C 87 % 986,3 hPa 0,0 l/m 20,7 km/h W-SW 3,4 C -2,9 C 11,5 km/h
23.01.2014 19:00 5,6 C 86 % 985,7 hPa 0,0 l/m 19,4 km/h SW 3,4 C -2,2 C 10,8 km/h
23.01.2014 20:00 5,6 C 86 % 985,4 hPa 0,0 l/m 31,8 km/h SW 3,4 C -6,0 C 17,6 km/h
23.01.2014 21:00 5,4 C 86 % 984,8 hPa 0,0 l/m 6,5 km/h S-SW 3,3 C 5,3 C 6,5 km/h
23.01.2014 22:00 4,5 C 88 % 984,1 hPa 0,8 l/m 12,2 km/h W-SW 2,7 C 0,1 C 12,2 km/h
23.01.2014 23:00 4,4 C 88 % 983,6 hPa 0,8 l/m 13,3 km/h SW 2,6 C -0,7 C 13,3 km/h
24.01.2014 00:00 4,4 C 88 % 983,2 hPa 0,8 l/m 21,2 km/h SW 2,6 C -4,4 C 21,2 km/h
24.01.2014 01:00 3,9 C 88 % 983,0 hPa 0,8 l/m 18,7 km/h N-NW 2,1 C -4,0 C 18,7 km/h
24.01.2014 02:00 3,3 C 88 % 983,5 hPa 0,8 l/m 2,9 km/h SW 1,5 C 3,3 C 2,9 km/h
24.01.2014 03:00 2,9 C 87 % 984,7 hPa 0,8 l/m 5,0 km/h W-SW 1,0 C 2,9 C 5,0 km/h
24.01.2014 04:00 2,1 C 87 % 984,9 hPa 0,8 l/m 1,1 km/h W 0,2 C 2,1 C 1,1 km/h
24.01.2014 05:00 1,2 C 87 % 985,3 hPa 0,8 l/m 7,8 km/h W-NW -0,7 C -0,2 C 4,3 km/h
24.01.2014 06:00 1,9 C 86 % 985,6 hPa 0,0 l/m 0,0 km/h SW -0,2 C 1,9 C 0,0 km/h
24.01.2014 07:00 2,1 C 86 % 985,9 hPa 0,0 l/m 15,6 km/h W 0,0 C -4,8 C 8,6 km/h
24.01.2014 08:00 1,8 C 87 % 986,4 hPa 0,0 l/m 1,9 km/h W-SW -0,1 C 1,8 C 1,1 km/h
24.01.2014 09:00 1,8 C 86 % 986,9 hPa 0,0 l/m 11,0 km/h W-SW -0,3 C -2,2 C 6,1 km/h
24.01.2014 10:00 2,1 C 86 % 987,4 hPa 0,0 l/m 12,3 km/h W-SW 0,0 C -2,8 C 6,8 km/h
24.01.2014 11:00 2,5 C 87 % 987,6 hPa 0,8 l/m 1,3 km/h S-SO 0,6 C 2,5 C 0,7 km/h
24.01.2014 12:00 2,6 C 87 % 987,3 hPa 0,8 l/m 0,0 km/h SO 0,7 C 2,6 C 0,0 km/h
24.01.2014 13:00 3,9 C 88 % 986,9 hPa 0,0 l/m 0,6 km/h SO 2,1 C 3,9 C 0,4 km/h
24.01.2014 14:00 4,1 C 87 % 987,0 hPa 0,0 l/m 2,6 km/h S-SO 2,1 C 4,1 C 1,4 km/h
24.01.2014 15:00 3,9 C 86 % 986,6 hPa 0,0 l/m 0,6 km/h S-SO 1,8 C 3,9 C 0,4 km/h
24.01.2014 16:00 3,9 C 86 % 987,0 hPa 0,0 l/m 0,0 km/h SO 1,8 C 3,9 C 0,0 km/h
24.01.2014 17:00 2,7 C 87 % 987,5 hPa 0,0 l/m 0,0 km/h O 0,8 C 2,7 C 0,0 km/h
24.01.2014 18:00 0,9 C 88 % 987,7 hPa 0,0 l/m 0,0 km/h O-SO -0,9 C 0,9 C 0,0 km/h
24.01.2014 19:00 -0,5 C 88 % 988,3 hPa 0,0 l/m 0,0 km/h O-SO -2,2 C -0,5 C 0,0 km/h
24.01.2014 20:00 -0,8 C 88 % 988,1 hPa 0,0 l/m 0,0 km/h O-SO -2,5 C -0,8 C 0,0 km/h
24.01.2014 21:00 -1,8 C 88 % 988,5 hPa 0,0 l/m 0,0 km/h O-SO -3,5 C -1,8 C 0,0 km/h
24.01.2014 22:00 -1,8 C 87 % 988,5 hPa 0,0 l/m 0,0 km/h O-SO -3,7 C -1,8 C 0,0 km/h
24.01.2014 23:00 -2,1 C 87 % 988,5 hPa 0,0 l/m 0,0 km/h O-SO -4,0 C -2,1 C 0,0 km/h
25.01.2014 00:00 -1,9 C 87 % 988,6 hPa 0,0 l/m 2,2 km/h O-SO -3,8 C -1,9 C 2,2 km/h
25.01.2014 01:00 -2,1 C 87 % 988,8 hPa 0,0 l/m 0,0 km/h O-SO -4,0 C -2,1 C 0,0 km/h
25.01.2014 02:00 -3,0 C 87 % 989,0 hPa 0,0 l/m 0,0 km/h O-SO -4,9 C -3,0 C 0,0 km/h
25.01.2014 03:00 -3,6 C 87 % 990,0 hPa 0,0 l/m 0,0 km/h O-SO -5,4 C -3,6 C 0,0 km/h
25.01.2014 04:00 -3,2 C 86 % 989,6 hPa 0,0 l/m 0,0 km/h O-SO -5,2 C -3,2 C 0,0 km/h
25.01.2014 05:00 -3,6 C 86 % 989,7 hPa 0,0 l/m 0,0 km/h O-SO -5,6 C -3,6 C 0,0 km/h
25.01.2014 06:00 -4,1 C 87 % 989,7 hPa 0,0 l/m 0,0 km/h O-SO -5,9 C -4,1 C 0,0 km/h
25.01.2014 07:00 -4,2 C 87 % 990,2 hPa 0,0 l/m 0,0 km/h O-SO -6,0 C -4,2 C 0,0 km/h
25.01.2014 08:00 -4,3 C 87 % 990,1 hPa 0,0 l/m 0,0 km/h O-SO -6,1 C -4,3 C 0,0 km/h
25.01.2014 09:00 1,2 C 79 % 990,3 hPa 0,0 l/m 0,0 km/h O-SO -2,0 C 1,2 C 0,0 km/h
25.01.2014 10:00 4,1 C 88 % 990,0 hPa 0,0 l/m 0,0 km/h W-NW 2,3 C 4,1 C 0,0 km/h
25.01.2014 11:00 4,3 C 86 % 990,0 hPa 0,0 l/m 0,0 km/h S-SO 2,2 C 4,3 C 0,0 km/h
25.01.2014 12:00 8,6 C 76 % 989,2 hPa 0,0 l/m 0,0 km/h SO 4,6 C 8,6 C 0,0 km/h
25.01.2014 13:00 6,8 C 73 % 988,9 hPa 0,0 l/m 0,0 km/h SW 2,3 C 6,8 C 0,0 km/h
25.01.2014 14:00 6,2 C 71 % 988,5 hPa 0,0 l/m 0,0 km/h W 1,3 C 6,2 C 0,0 km/h
25.01.2014 15:00 5,9 C 69 % 988,8 hPa 0,0 l/m 0,0 km/h W-SW 0,7 C 5,9 C 0,0 km/h
25.01.2014 16:00 4,9 C 72 % 988,7 hPa 0,0 l/m 0,0 km/h W-SW 0,3 C 4,9 C 0,0 km/h
25.01.2014 17:00 3,5 C 77 % 988,7 hPa 0,0 l/m 0,0 km/h W -0,1 C 3,5 C 0,0 km/h
25.01.2014 18:00 1,3 C 82 % 988,6 hPa 0,0 l/m 0,0 km/h O-NO -1,4 C 1,3 C 0,0 km/h
25.01.2014 19:00 1,0 C 86 % 989,0 hPa 0,0 l/m 0,0 km/h N -1,1 C 1,0 C 0,0 km/h
25.01.2014 20:00 0,9 C 87 % 988,5 hPa 0,0 l/m 0,6 km/h S-SW -1,0 C 0,9 C 0,4 km/h
25.01.2014 21:00 1,8 C 88 % 986,4 hPa 0,0 l/m 0,0 km/h S-SW 0,0 C 1,8 C 0,0 km/h
25.01.2014 22:00 4,4 C 75 % 985,5 hPa 0,0 l/m 14,8 km/h S-SW 0,4 C -1,5 C 14,8 km/h
25.01.2014 23:00 4,8 C 64 % 983,5 hPa 0,0 l/m 13,0 km/h SW -1,4 C -0,1 C 13,0 km/h
26.01.2014 00:00 4,3 C 67 % 984,2 hPa 0,0 l/m 4,3 km/h SW -1,3 C 4,3 C 4,3 km/h
26.01.2014 01:00 3,7 C 77 % 983,0 hPa 0,0 l/m 12,2 km/h W-SW 0,1 C -0,9 C 12,2 km/h
26.01.2014 02:00 2,9 C 85 % 983,9 hPa 0,0 l/m 16,9 km/h W-SW 0,6 C -4,5 C 16,9 km/h
26.01.2014 03:00 1,9 C 87 % 984,3 hPa 0,0 l/m 0,7 km/h SW -0,0 C 1,9 C 0,7 km/h
26.01.2014 04:00 2,7 C 87 % 985,5 hPa 0,0 l/m 0,7 km/h SW 0,8 C 2,7 C 0,7 km/h
26.01.2014 05:00 3,6 C 86 % 986,4 hPa 0,0 l/m 8,4 km/h W 1,5 C 1,8 C 4,7 km/h
26.01.2014 06:00 3,8 C 83 % 986,6 hPa 0,0 l/m 7,8 km/h W 1,2 C 2,5 C 4,3 km/h
26.01.2014 07:00 3,6 C 82 % 987,0 hPa 0,0 l/m 1,3 km/h W 0,8 C 3,6 C 0,7 km/h
26.01.2014 08:00 3,2 C 82 % 987,3 hPa 0,0 l/m 0,0 km/h W-SW 0,4 C 3,2 C 0,0 km/h
26.01.2014 09:00 3,4 C 84 % 987,6 hPa 0,0 l/m 0,0 km/h W-SW 1,0 C 3,4 C 0,0 km/h
26.01.2014 10:00 4,3 C 81 % 987,1 hPa 0,0 l/m 22,7 km/h SW 1,3 C -5,1 C 12,6 km/h
26.01.2014 11:00 6,2 C 76 % 986,5 hPa 0,0 l/m 22,7 km/h W-SW 2,3 C -2,6 C 12,6 km/h
26.01.2014 12:00 10,1 C 63 % 985,2 hPa 0,0 l/m 12,3 km/h W 3,4 C 6,5 C 6,8 km/h
26.01.2014 13:00 7,2 C 66 % 984,4 hPa 0,0 l/m 6,5 km/h SW 1,3 C 7,1 C 3,6 km/h
26.01.2014 14:00 6,6 C 68 % 983,2 hPa 0,0 l/m 22,0 km/h S 1,1 C -1,8 C 12,2 km/h
26.01.2014 15:00 6,4 C 70 % 982,0 hPa 0,0 l/m 11,0 km/h S-SW 1,3 C 3,0 C 6,1 km/h
26.01.2014 16:00 6,2 C 68 % 981,0 hPa 0,0 l/m 22,0 km/h S-SW 0,7 C -2,3 C 12,2 km/h
26.01.2014 17:00 5,9 C 67 % 979,1 hPa 0,0 l/m 24,6 km/h S 0,3 C -3,6 C 13,7 km/h
26.01.2014 18:00 6,3 C 66 % 977,9 hPa 0,0 l/m 12,3 km/h S-SW 0,4 C 2,1 C 6,8 km/h
26.01.2014 19:00 6,4 C 66 % 976,1 hPa 0,0 l/m 24,6 km/h S-SO 0,5 C -2,9 C 13,7 km/h
26.01.2014 20:00 5,0 C 74 % 973,6 hPa 0,0 l/m 9,7 km/h S-SO 0,8 C 2,3 C 5,4 km/h
26.01.2014 21:00 6,2 C 71 % 971,2 hPa 0,0 l/m 11,2 km/h SW 1,3 C 2,6 C 11,2 km/h
26.01.2014 22:00 5,6 C 75 % 969,8 hPa 0,8 l/m 12,2 km/h NW 1,5 C 1,3 C 12,2 km/h
26.01.2014 23:00 5,3 C 80 % 969,0 hPa 0,0 l/m 0,0 km/h SW 2,1 C 5,3 C 0,0 km/h
Min-Datum _ 25.01.14 26.01.14 26.01.14 - 20.01.14 - 25.01.14 23.01.14 20.01.14
_ Min-Zeit 08:19 12:19 23:19 - 00:19 - 08:19 15:19 00:19
Minimum _ -4,3 C 63 % 969,0 hPa - 0,0 km/h - -6,1 C -7,9 C 0,0 km/h
Max-Datum _ 26.01.14 21.01.14 22.01.14 20.01.14 23.01.14 - 25.01.14 25.01.14 23.01.14
_ Max-Zeit 12:19 15:19 20:19 05:19 15:19 - 12:19 12:19 15:19
Maximum _ 10,1 C 88 % 1011,1 hPa 0,8 l/m 38,9 km/h
S-SW
- 4,6 C 8,6 C 21,6 km/h
S-SW
Durchschnitt _ 3,4 C 83 % 984,0 hPa #11,7 l/m 3,9 km/h O-SO 0,8 C 2,1 C 2,6 km/h
www.sexauwetter.de